createdAt,value
2023-04-09T00:01:15.625Z,11.70
2023-04-09T00:03:45.145Z,11.80
2023-04-09T00:06:13.882Z,11.90
2023-04-09T00:08:41.980Z,12.40
2023-04-09T00:11:12.194Z,11.70
2023-04-09T00:13:41.109Z,12.60
2023-04-09T00:16:10.220Z,12.30
2023-04-09T00:18:38.837Z,12.00
2023-04-09T00:21:08.940Z,12.20
2023-04-09T00:23:38.558Z,12.70
2023-04-09T00:26:07.042Z,11.20
2023-04-09T00:28:36.311Z,11.70
2023-04-09T00:31:04.562Z,12.20
2023-04-09T00:33:33.404Z,12.50
2023-04-09T00:36:02.328Z,12.30
2023-04-09T00:38:30.928Z,11.50
2023-04-09T00:40:59.874Z,11.80
2023-04-09T00:43:28.121Z,12.60
2023-04-09T00:45:56.296Z,11.90
2023-04-09T00:48:27.792Z,11.70
2023-04-09T00:50:56.248Z,11.20
2023-04-09T00:53:25.091Z,10.90
2023-04-09T00:55:54.299Z,10.60
2023-04-09T00:58:32.889Z,11.20
2023-04-09T01:01:01.427Z,11.20
2023-04-09T01:03:32.385Z,11.70
2023-04-09T01:06:16.376Z,12.20
2023-04-09T01:09:12.784Z,8.80
2023-04-09T01:11:56.945Z,11.80
2023-04-09T01:14:33.042Z,11.40
2023-04-09T01:17:20.041Z,11.90
2023-04-09T01:20:17.451Z,11.20
2023-04-09T01:22:48.723Z,11.30
2023-04-09T01:25:55.980Z,11.70
2023-04-09T01:28:34.302Z,11.50
2023-04-09T01:31:14.150Z,11.30
2023-04-09T01:33:42.324Z,11.60
2023-04-09T01:36:11.067Z,12.10
2023-04-09T01:38:41.542Z,11.70
2023-04-09T01:41:12.799Z,11.00
2023-04-09T01:43:40.945Z,11.70
2023-04-09T01:46:09.208Z,11.10
2023-04-09T01:48:37.857Z,11.00
2023-04-09T01:51:06.505Z,10.80
2023-04-09T01:53:34.645Z,11.30
2023-04-09T01:56:04.589Z,11.90
2023-04-09T01:58:35.239Z,11.50
2023-04-09T02:01:13.127Z,10.70
2023-04-09T02:03:55.043Z,11.30
2023-04-09T02:06:47.566Z,11.10
2023-04-09T02:09:15.941Z,11.50
2023-04-09T02:11:44.016Z,11.30
2023-04-09T02:14:15.995Z,11.50
2023-04-09T02:16:46.638Z,11.40
2023-04-09T02:19:14.638Z,11.10
2023-04-09T02:21:48.444Z,11.40
2023-04-09T02:24:16.714Z,11.20
2023-04-09T02:26:44.948Z,11.50
2023-04-09T02:29:14.144Z,11.40
2023-04-09T02:31:42.539Z,11.60
2023-04-09T02:34:10.976Z,12.00
2023-04-09T02:36:39.130Z,11.50
2023-04-09T02:39:07.286Z,11.50
2023-04-09T02:41:37.154Z,11.20
2023-04-09T02:44:06.146Z,11.10
2023-04-09T02:46:34.552Z,11.30
2023-04-09T02:49:02.842Z,12.10
2023-04-09T02:51:31.606Z,12.30
2023-04-09T02:54:03.554Z,11.50
2023-04-09T02:56:32.549Z,12.50
2023-04-09T02:59:00.970Z,12.00
2023-04-09T03:01:30.946Z,12.50
2023-04-09T03:04:00.929Z,12.50
2023-04-09T03:06:29.653Z,12.70
2023-04-09T03:08:57.932Z,13.10
2023-04-09T03:11:26.543Z,13.40
2023-04-09T03:13:54.794Z,13.20
2023-04-09T03:16:25.281Z,13.40
2023-04-09T03:18:53.785Z,13.90
2023-04-09T03:21:22.807Z,13.30
2023-04-09T03:23:51.708Z,14.70
2023-04-09T03:26:20.766Z,14.70
2023-04-09T03:28:50.526Z,14.70
2023-04-09T03:31:19.227Z,14.50
2023-04-09T03:33:47.663Z,13.90
2023-04-09T03:36:18.498Z,13.70
2023-04-09T03:38:55.201Z,13.80
2023-04-09T03:41:35.630Z,13.80
2023-04-09T03:44:10.457Z,14.10
2023-04-09T03:47:01.165Z,13.50
2023-04-09T03:49:29.649Z,14.40
2023-04-09T03:52:02.474Z,13.70
2023-04-09T03:54:39.154Z,13.90
2023-04-09T03:57:12.494Z,14.10
2023-04-09T03:59:46.401Z,14.30
2023-04-09T04:02:16.592Z,15.10
2023-04-09T04:04:47.623Z,14.70
2023-04-09T04:07:17.169Z,14.60
2023-04-09T04:09:50.463Z,14.50
2023-04-09T04:12:25.997Z,15.00
2023-04-09T04:15:08.635Z,14.20
2023-04-09T04:17:41.245Z,14.70
2023-04-09T04:20:17.701Z,14.10
2023-04-09T04:23:20.098Z,14.10
2023-04-09T04:26:03.593Z,14.80
2023-04-09T04:28:40.150Z,14.30
2023-04-09T04:31:10.818Z,15.10
2023-04-09T04:33:41.514Z,13.70
2023-04-09T04:36:14.259Z,13.20
2023-04-09T04:38:54.262Z,12.40
2023-04-09T04:41:31.723Z,11.80
2023-04-09T04:44:16.504Z,11.10
2023-04-09T04:46:47.048Z,10.50
2023-04-09T04:49:15.543Z,10.70
2023-04-09T04:51:49.420Z,10.30
2023-04-09T04:54:18.004Z,9.50
2023-04-09T04:56:53.041Z,10.30
2023-04-09T04:59:38.854Z,10.50
2023-04-09T05:02:08.398Z,9.70
2023-04-09T05:04:44.287Z,9.60
2023-04-09T05:07:17.256Z,9.50
2023-04-09T05:09:54.255Z,9.40
2023-04-09T05:12:23.764Z,9.70
2023-04-09T05:14:58.552Z,9.00
2023-04-09T05:17:26.838Z,9.40
2023-04-09T05:19:55.159Z,8.80
2023-04-09T05:22:28.145Z,8.40
2023-04-09T05:24:56.227Z,7.90
2023-04-09T05:27:26.166Z,7.60
2023-04-09T05:30:00.368Z,7.30
2023-04-09T05:32:29.946Z,7.40
2023-04-09T05:34:58.793Z,7.20
2023-04-09T05:37:27.729Z,7.20
2023-04-09T05:39:58.948Z,7.10
2023-04-09T05:42:27.233Z,7.10
2023-04-09T05:45:07.329Z,7.60
2023-04-09T05:47:35.468Z,7.00
2023-04-09T05:50:12.254Z,6.90
2023-04-09T05:52:43.503Z,6.90
2023-04-09T05:55:13.475Z,6.70
2023-04-09T05:57:58.277Z,6.40
2023-04-09T06:00:34.028Z,6.20
2023-04-09T06:03:03.729Z,6.10
2023-04-09T06:05:32.330Z,6.20
2023-04-09T06:08:02.334Z,6.60
2023-04-09T06:10:32.951Z,6.20
2023-04-09T06:13:01.368Z,5.80
2023-04-09T06:15:35.078Z,5.50
2023-04-09T06:18:03.246Z,6.00
2023-04-09T06:20:31.794Z,6.00
2023-04-09T06:23:09.345Z,5.60
2023-04-09T06:25:39.148Z,5.40
2023-04-09T06:28:07.704Z,5.40
2023-04-09T06:30:37.202Z,5.20
2023-04-09T06:33:06.336Z,4.60
2023-04-09T06:35:34.714Z,5.10
2023-04-09T06:38:07.009Z,4.60
2023-04-09T06:40:38.157Z,4.50
2023-04-09T06:43:09.750Z,4.70
2023-04-09T06:45:47.655Z,5.20
2023-04-09T06:48:16.723Z,5.00
2023-04-09T06:50:46.052Z,4.90
2023-04-09T06:53:16.202Z,4.80
2023-04-09T06:55:44.382Z,4.80
2023-04-09T06:58:13.303Z,4.60
2023-04-09T07:00:42.050Z,4.80
2023-04-09T07:03:15.038Z,4.80
2023-04-09T07:05:43.437Z,4.80
2023-04-09T07:08:12.073Z,4.60
2023-04-09T07:10:42.401Z,4.90
2023-04-09T07:13:12.928Z,4.60
2023-04-09T07:15:42.583Z,4.60
2023-04-09T07:18:11.836Z,4.50
2023-04-09T07:20:43.288Z,4.10
2023-04-09T07:23:12.308Z,4.30
2023-04-09T07:25:42.441Z,5.00
2023-04-09T07:28:11.783Z,4.20
2023-04-09T07:30:40.078Z,4.30
2023-04-09T07:33:08.259Z,4.20
2023-04-09T07:35:38.685Z,4.50
2023-04-09T07:38:07.317Z,4.40
2023-04-09T07:40:36.978Z,4.50
2023-04-09T07:43:06.016Z,4.30
2023-04-09T07:45:34.358Z,4.20
2023-04-09T07:48:03.494Z,4.30
2023-04-09T07:50:32.963Z,4.30
2023-04-09T07:53:01.432Z,4.20
2023-04-09T07:55:29.806Z,4.60
2023-04-09T07:57:58.309Z,4.40
2023-04-09T08:00:33.042Z,4.00
2023-04-09T08:03:04.310Z,4.50
2023-04-09T08:05:32.785Z,4.30
2023-04-09T08:08:06.446Z,5.10
2023-04-09T08:10:34.622Z,4.80
2023-04-09T08:13:03.002Z,4.90
2023-04-09T08:15:38.204Z,4.30
2023-04-09T08:18:07.563Z,4.40
2023-04-09T08:20:36.299Z,4.90
2023-04-09T08:23:13.599Z,4.10
2023-04-09T08:25:42.932Z,4.30
2023-04-09T08:28:11.060Z,4.90
2023-04-09T08:30:41.002Z,4.50
2023-04-09T08:33:09.779Z,4.50
2023-04-09T08:35:40.519Z,4.50
2023-04-09T08:38:09.054Z,4.30
2023-04-09T08:40:37.566Z,4.50
2023-04-09T08:43:09.385Z,4.30
2023-04-09T08:45:41.675Z,4.80
2023-04-09T08:48:10.386Z,5.00
2023-04-09T08:50:39.873Z,4.90
2023-04-09T08:53:08.458Z,5.20
2023-04-09T08:55:37.906Z,4.80
2023-04-09T08:58:10.814Z,5.50
2023-04-09T09:00:43.176Z,5.40
2023-04-09T09:03:16.009Z,4.60
2023-04-09T09:05:45.696Z,5.10
2023-04-09T09:08:23.184Z,5.20
2023-04-09T09:10:51.664Z,5.40
2023-04-09T09:13:19.744Z,4.90
2023-04-09T09:15:50.562Z,5.60
2023-04-09T09:18:37.570Z,6.10
2023-04-09T09:21:12.061Z,5.20
2023-04-09T09:23:42.777Z,5.50
2023-04-09T09:26:21.772Z,6.40
2023-04-09T09:28:50.730Z,5.80
2023-04-09T09:31:21.222Z,7.10
2023-04-09T09:33:50.563Z,6.30
2023-04-09T09:36:34.726Z,6.80
2023-04-09T09:39:05.394Z,7.20
2023-04-09T09:41:36.815Z,7.50
2023-04-09T09:44:07.218Z,7.30
2023-04-09T09:46:38.464Z,7.40
2023-04-09T09:49:07.424Z,6.90
2023-04-09T09:51:40.129Z,7.10
2023-04-09T09:54:10.231Z,7.00
2023-04-09T09:56:39.544Z,6.60
2023-04-09T09:59:17.590Z,7.00
2023-04-09T10:01:46.334Z,7.00
2023-04-09T10:04:15.903Z,7.10
2023-04-09T10:06:45.031Z,7.40
2023-04-09T10:09:13.335Z,7.60
2023-04-09T10:11:45.729Z,7.80
2023-04-09T10:14:18.242Z,8.10
2023-04-09T10:16:46.651Z,6.80
2023-04-09T10:19:15.325Z,7.10
2023-04-09T10:21:48.758Z,8.00
2023-04-09T10:24:20.156Z,7.80
2023-04-09T10:26:48.983Z,7.00
2023-04-09T10:29:17.145Z,6.90
2023-04-09T10:31:53.136Z,7.30
2023-04-09T10:34:24.760Z,6.90
2023-04-09T10:36:55.825Z,7.30
2023-04-09T10:39:29.890Z,7.60
2023-04-09T10:41:58.764Z,7.40
2023-04-09T10:44:38.163Z,7.40
2023-04-09T10:47:32.489Z,7.20
2023-04-09T10:50:20.179Z,7.90
2023-04-09T10:52:52.987Z,7.60
2023-04-09T10:55:36.295Z,8.40
2023-04-09T10:58:13.270Z,8.00
2023-04-09T11:00:46.503Z,8.60
2023-04-09T11:03:22.378Z,8.80
2023-04-09T11:06:06.172Z,8.20
2023-04-09T11:08:39.279Z,9.20
2023-04-09T11:11:07.698Z,9.40
2023-04-09T11:13:41.776Z,10.00
2023-04-09T11:16:12.990Z,10.50
2023-04-09T11:19:02.969Z,11.40
2023-04-09T11:21:48.438Z,11.50
2023-04-09T11:24:18.916Z,12.10
2023-04-09T11:26:52.008Z,12.90
2023-04-09T11:29:37.062Z,14.40
2023-04-09T11:32:05.626Z,15.00
2023-04-09T11:34:53.459Z,16.20
2023-04-09T11:37:28.863Z,16.50
2023-04-09T11:39:58.430Z,17.10
2023-04-09T11:42:31.686Z,16.40
2023-04-09T11:45:07.247Z,16.10
2023-04-09T11:47:51.293Z,16.30
2023-04-09T11:50:23.273Z,17.20
2023-04-09T11:52:52.502Z,16.40
2023-04-09T11:55:31.092Z,17.40
2023-04-09T11:58:11.779Z,17.30
2023-04-09T12:00:45.438Z,17.40
2023-04-09T12:03:31.029Z,16.70
2023-04-09T12:06:02.978Z,16.80
2023-04-09T12:08:35.981Z,16.20
2023-04-09T12:11:12.841Z,16.50
2023-04-09T12:13:44.714Z,13.80
2023-04-09T12:16:14.435Z,14.90
2023-04-09T12:19:09.222Z,15.00
2023-04-09T12:21:58.529Z,15.70
2023-04-09T12:24:28.243Z,15.40
2023-04-09T12:27:07.663Z,14.70
2023-04-09T12:29:36.229Z,14.20
2023-04-09T12:32:05.056Z,15.80
2023-04-09T12:34:36.182Z,15.60
2023-04-09T12:37:04.972Z,14.90
2023-04-09T12:39:34.453Z,14.80
2023-04-09T12:42:04.492Z,15.30
2023-04-09T12:44:37.357Z,15.50
2023-04-09T12:47:05.380Z,14.50
2023-04-09T12:49:33.421Z,15.20
2023-04-09T12:52:01.664Z,15.20
2023-04-09T12:54:31.619Z,14.70
2023-04-09T12:57:01.548Z,13.70
2023-04-09T12:59:32.007Z,13.80
2023-04-09T13:02:02.330Z,13.30
2023-04-09T13:04:31.523Z,13.40
2023-04-09T13:07:03.064Z,13.70
2023-04-09T13:09:31.678Z,13.40
2023-04-09T13:12:13.114Z,14.30
2023-04-09T13:14:44.613Z,14.00
2023-04-09T13:17:15.597Z,13.50
2023-04-09T13:19:44.287Z,14.00
2023-04-09T13:22:12.652Z,14.00
2023-04-09T13:24:43.376Z,13.70
2023-04-09T13:27:14.455Z,13.20
2023-04-09T13:29:45.732Z,13.50
2023-04-09T13:32:14.507Z,13.00
2023-04-09T13:34:55.898Z,12.80
2023-04-09T13:37:26.222Z,12.90
2023-04-09T13:39:54.287Z,12.90
2023-04-09T13:42:22.800Z,12.60
2023-04-09T13:44:51.399Z,13.70
2023-04-09T13:47:24.171Z,14.00
2023-04-09T13:49:53.383Z,14.30
2023-04-09T13:52:21.471Z,14.50
2023-04-09T13:54:50.658Z,14.50
2023-04-09T13:57:18.650Z,15.20
2023-04-09T13:59:47.517Z,14.50
2023-04-09T14:02:18.227Z,14.50
2023-04-09T14:04:46.529Z,14.70
2023-04-09T14:07:14.910Z,14.50
2023-04-09T14:09:45.943Z,15.20
2023-04-09T14:12:14.673Z,15.00
2023-04-09T14:14:43.859Z,15.30
2023-04-09T14:17:11.815Z,16.20
2023-04-09T14:19:40.507Z,15.60
2023-04-09T14:22:18.515Z,15.40
2023-04-09T14:24:46.509Z,14.50
2023-04-09T14:27:14.942Z,15.50
2023-04-09T14:29:46.479Z,15.70
2023-04-09T14:32:23.695Z,15.90
2023-04-09T14:35:07.952Z,16.30
2023-04-09T14:37:42.211Z,16.00
2023-04-09T14:40:13.149Z,15.90
2023-04-09T14:42:45.654Z,15.30
2023-04-09T14:45:24.414Z,15.80
2023-04-09T14:47:52.501Z,15.40
2023-04-09T14:52:56.907Z,15.80
2023-04-09T14:55:44.825Z,16.30
2023-04-09T14:58:19.888Z,15.90
2023-04-09T15:00:59.389Z,16.40
2023-04-09T15:03:31.804Z,15.90
2023-04-09T15:06:12.644Z,15.30
2023-04-09T15:08:40.722Z,15.70
2023-04-09T15:11:23.119Z,16.00
2023-04-09T15:13:57.930Z,15.60
2023-04-09T15:16:28.104Z,15.90
2023-04-09T15:19:05.407Z,14.70
2023-04-09T15:21:38.156Z,14.80
2023-04-09T15:24:08.182Z,15.50
2023-04-09T15:26:39.155Z,14.90
2023-04-09T15:29:15.537Z,14.80
2023-04-09T15:31:56.433Z,14.90
2023-04-09T15:34:32.738Z,12.70
2023-04-09T15:37:03.512Z,14.30
2023-04-09T15:39:32.660Z,14.40
2023-04-09T15:42:02.244Z,26.10
2023-04-09T15:44:31.606Z,29.00
2023-04-09T15:47:10.886Z,15.80
2023-04-09T15:49:43.008Z,15.40
2023-04-09T15:52:13.685Z,13.50
2023-04-09T15:54:41.668Z,13.60
2023-04-09T15:57:12.436Z,13.30
2023-04-09T15:59:44.118Z,14.30
2023-04-09T16:02:15.764Z,15.40
2023-04-09T16:04:47.359Z,15.40
2023-04-09T16:07:18.676Z,17.00
2023-04-09T16:09:54.564Z,17.90
2023-04-09T16:12:26.097Z,16.90
2023-04-09T16:15:08.004Z,15.30
2023-04-09T16:17:40.938Z,16.60
2023-04-09T16:20:11.598Z,15.40
2023-04-09T16:22:45.386Z,15.50
2023-04-09T16:25:14.415Z,14.70
2023-04-09T16:27:43.572Z,14.10
2023-04-09T16:30:12.567Z,12.40
2023-04-09T16:32:46.992Z,12.40
2023-04-09T16:35:15.504Z,12.10
2023-04-09T16:37:51.857Z,12.30
2023-04-09T16:40:24.414Z,12.50
2023-04-09T16:42:56.873Z,12.40
2023-04-09T16:45:24.896Z,12.40
2023-04-09T16:48:13.479Z,12.50
2023-04-09T16:50:42.953Z,14.00
2023-04-09T16:53:14.569Z,13.80
2023-04-09T16:55:45.033Z,13.90
2023-04-09T16:58:12.998Z,16.30
2023-04-09T17:00:44.146Z,19.40
2023-04-09T17:03:14.312Z,29.80
2023-04-09T17:05:42.377Z,24.90
2023-04-09T17:08:11.088Z,27.70
2023-04-09T17:10:44.254Z,22.60
2023-04-09T17:13:16.406Z,19.50
2023-04-09T17:15:44.709Z,17.80
2023-04-09T17:18:32.690Z,16.00
2023-04-09T17:21:01.519Z,16.10
2023-04-09T17:23:34.217Z,18.50
2023-04-09T17:26:02.555Z,24.50
2023-04-09T17:28:34.027Z,17.30
2023-04-09T17:31:02.462Z,15.90
2023-04-09T17:33:50.455Z,14.60
2023-04-09T17:36:19.905Z,14.80
2023-04-09T17:38:53.148Z,13.70
2023-04-09T17:41:21.300Z,14.20
2023-04-09T17:43:53.715Z,14.30
2023-04-09T17:46:23.888Z,13.60
2023-04-09T17:48:55.331Z,15.00
2023-04-09T17:51:30.291Z,13.80
2023-04-09T17:54:04.800Z,13.20
2023-04-09T17:56:39.001Z,13.10
2023-04-09T17:59:12.142Z,12.80
2023-04-09T18:02:00.978Z,11.80
2023-04-09T18:04:29.592Z,12.70
2023-04-09T18:06:57.969Z,11.80
2023-04-09T18:09:26.238Z,11.20
2023-04-09T18:11:56.549Z,11.10
2023-04-09T18:14:32.652Z,12.70
2023-04-09T18:17:04.841Z,12.70
2023-04-09T18:19:32.932Z,14.40
2023-04-09T18:22:01.342Z,15.20
2023-04-09T18:24:35.247Z,15.30
2023-04-09T18:27:03.874Z,15.50
2023-04-09T18:32:05.012Z,15.40
2023-04-09T18:34:36.567Z,15.30
2023-04-09T18:37:04.981Z,15.50
2023-04-09T18:39:40.326Z,15.70
2023-04-09T18:42:10.162Z,15.50
2023-04-09T18:44:40.751Z,17.00
2023-04-09T18:47:12.753Z,15.90
2023-04-09T18:49:41.527Z,16.20
2023-04-09T18:52:13.297Z,16.30
2023-04-09T18:54:49.349Z,15.70
2023-04-09T18:57:17.774Z,16.40
2023-04-09T18:59:46.827Z,16.80
2023-04-09T19:02:15.502Z,16.00
2023-04-09T19:04:45.103Z,16.50
2023-04-09T19:07:13.624Z,16.10
2023-04-09T19:09:42.161Z,16.80
2023-04-09T19:12:10.999Z,16.20
2023-04-09T19:14:40.684Z,16.90
2023-04-09T19:17:10.541Z,17.50
2023-04-09T19:19:38.869Z,17.90
2023-04-09T19:22:08.276Z,18.20
2023-04-09T19:24:41.362Z,18.20
2023-04-09T19:29:40.462Z,18.60
2023-04-09T19:32:13.531Z,18.80
2023-04-09T19:34:45.003Z,19.50
2023-04-09T19:37:15.218Z,19.40
2023-04-09T19:39:43.723Z,20.30
2023-04-09T19:42:12.190Z,20.50
2023-04-09T19:44:41.802Z,20.00
2023-04-09T19:47:10.516Z,20.40
2023-04-09T19:49:39.491Z,21.00
2023-04-09T19:52:08.762Z,21.50
2023-04-09T19:54:37.660Z,21.70
2023-04-09T19:57:12.809Z,21.30
2023-04-09T19:59:43.244Z,21.00
2023-04-09T20:02:15.616Z,21.00
2023-04-09T20:04:43.967Z,21.90
2023-04-09T20:07:12.343Z,21.50
2023-04-09T20:09:43.679Z,21.50
2023-04-09T20:12:14.122Z,22.60
2023-04-09T20:14:43.391Z,20.90
2023-04-09T20:17:20.387Z,20.80
2023-04-09T20:19:58.464Z,21.00
2023-04-09T20:22:33.650Z,22.30
2023-04-09T20:25:04.914Z,21.00
2023-04-09T20:27:33.662Z,21.80
2023-04-09T20:30:03.308Z,20.40
2023-04-09T20:32:37.950Z,22.70
2023-04-09T20:35:08.242Z,21.30
2023-04-09T20:37:36.879Z,22.20
2023-04-09T20:40:06.822Z,20.80
2023-04-09T20:47:09.824Z,20.80
2023-04-09T20:49:37.958Z,21.50
2023-04-09T20:52:09.235Z,22.70
2023-04-09T20:54:39.247Z,22.30
2023-04-09T20:57:07.248Z,22.60
2023-04-09T20:59:36.317Z,22.90
2023-04-09T21:02:04.778Z,21.20
2023-04-09T21:04:32.996Z,22.30
2023-04-09T21:07:01.256Z,23.00
2023-04-09T21:09:29.724Z,22.70
2023-04-09T21:12:04.902Z,22.20
2023-04-09T21:14:34.471Z,22.00
2023-04-09T21:17:02.548Z,23.60
2023-04-09T21:19:30.799Z,23.60
2023-04-09T21:21:58.854Z,21.30
2023-04-09T21:24:27.884Z,22.50
2023-04-09T21:26:55.933Z,20.10
2023-04-09T21:29:25.428Z,22.80
2023-04-09T21:31:54.047Z,21.80
2023-04-09T21:34:22.159Z,23.00
2023-04-09T21:36:51.320Z,24.00
2023-04-09T21:39:19.789Z,23.90
2023-04-09T21:41:47.891Z,23.50
2023-04-09T21:44:16.818Z,23.10
2023-04-09T21:51:18.544Z,22.10
2023-04-09T21:53:47.597Z,21.90
2023-04-09T21:56:16.022Z,21.90
2023-04-09T21:58:43.998Z,21.80
2023-04-09T22:01:22.618Z,22.40
2023-04-09T22:08:34.054Z,22.50
2023-04-09T22:11:03.313Z,23.40
2023-04-09T22:13:31.838Z,24.60
2023-04-09T22:16:01.103Z,23.10
2023-04-09T22:18:29.920Z,23.20
2023-04-09T22:21:17.040Z,23.90
2023-04-09T22:23:45.417Z,23.50
2023-04-09T22:26:13.760Z,23.80
2023-04-09T22:28:42.997Z,24.40
2023-04-09T22:31:11.079Z,25.70
2023-04-09T22:33:39.612Z,24.40
2023-04-09T22:36:08.270Z,24.40
2023-04-09T22:38:36.385Z,23.40
2023-04-09T22:45:54.533Z,21.40
2023-04-09T22:48:23.283Z,22.40
2023-04-09T22:50:51.343Z,23.50
2023-04-09T22:53:20.809Z,23.20
2023-04-09T22:55:54.601Z,22.50
2023-04-09T22:58:22.572Z,22.50
2023-04-09T23:00:50.990Z,21.90
2023-04-09T23:03:19.031Z,22.60
2023-04-09T23:05:47.185Z,23.40
2023-04-09T23:08:15.332Z,23.50
2023-04-09T23:10:51.576Z,23.00
2023-04-09T23:13:19.740Z,22.90
2023-04-09T23:15:48.451Z,23.50
2023-04-09T23:18:16.695Z,23.10
2023-04-09T23:20:44.618Z,24.00
2023-04-09T23:23:13.676Z,23.60
2023-04-09T23:25:45.297Z,23.20
2023-04-09T23:28:13.228Z,22.50
2023-04-09T23:30:41.510Z,23.70
2023-04-09T23:33:09.839Z,24.10
2023-04-09T23:35:38.179Z,21.10
2023-04-09T23:38:11.077Z,22.40
2023-04-09T23:40:40.581Z,22.50
2023-04-09T23:43:08.956Z,23.50
2023-04-09T23:50:28.743Z,22.80
2023-04-09T23:53:03.402Z,22.50
2023-04-09T23:55:33.358Z,22.60
2023-04-09T23:58:02.093Z,23.00
